Time;durP1;ratioP1;P1;durP2;ratioP2;P2;SDS_P1;SDS_P2;PMS_P1;PMS_P2;Temp;Humidity;BMP_temperature;BMP_pressure;BME280_temperature;BME280_humidity;BME280_pressure;Samples;Min_cycle;Max_cycle;Signal;HPM_P1;HPM_P2
2022/07/11 04:01:31;;;;;;;3.00;2.80;;;14.10;99.90;;;;;;5437032;23;20539;-67
2022/07/11 04:03:58;;;;;;;2.37;2.20;;;14.20;99.90;;;;;;4948227;29;20827;-66
2022/07/11 04:06:25;;;;;;;2.10;1.83;;;14.30;99.90;;;;;;4949045;29;20476;-69
2022/07/11 04:08:52;;;;;;;2.23;2.13;;;14.40;99.90;;;;;;4942474;29;20492;-66
2022/07/11 04:11:19;;;;;;;1.70;1.60;;;14.40;99.90;;;;;;4939075;29;20492;-65
2022/07/11 04:13:45;;;;;;;2.27;1.70;;;14.50;99.90;;;;;;4969477;23;20468;-70
2022/07/11 04:16:12;;;;;;;3.70;1.90;;;14.50;99.90;;;;;;4972238;28;20460;-69
2022/07/11 04:18:40;;;;;;;3.13;1.60;;;14.60;99.90;;;;;;4972431;28;20455;-70
2022/07/11 04:21:07;;;;;;;3.90;2.53;;;14.60;99.90;;;;;;4970714;28;20463;-69
2022/07/11 04:23:33;;;;;;;1.70;1.40;;;14.60;99.90;;;;;;4958612;28;20467;-70
2022/07/11 04:26:00;;;;;;;2.07;1.80;;;14.70;99.90;;;;;;4964296;28;20464;-69
2022/07/11 04:28:27;;;;;;;1.43;1.33;;;14.90;99.90;;;;;;4953422;29;20891;-69
2022/07/11 04:30:53;;;;;;;1.93;1.50;;;15.20;99.90;;;;;;4945453;28;20465;-69
2022/07/11 04:33:20;;;;;;;1.63;1.37;;;15.90;99.90;;;;;;4933732;29;20476;-69
2022/07/11 04:35:48;;;;;;;2.13;2.03;;;16.70;99.90;;;;;;4939182;29;20491;-70
2022/07/11 04:38:16;;;;;;;5.30;1.10;;;17.30;99.90;;;;;;4953575;29;20505;-70
2022/07/11 04:40:42;;;;;;;1.27;1.27;;;17.40;99.90;;;;;;4948789;29;20556;-70
2022/07/11 04:43:09;;;;;;;1.37;1.23;;;17.50;99.90;;;;;;4934448;29;20469;-70
2022/07/11 04:45:36;;;;;;;1.83;1.30;;;17.50;99.90;;;;;;4936082;29;20496;-69
2022/07/11 04:48:02;;;;;;;5.90;2.00;;;17.20;99.90;;;;;;4953120;29;20465;-70
2022/07/11 04:50:29;;;;;;;1.70;1.60;;;17.10;99.90;;;;;;4951047;29;20815;-69
2022/07/11 04:52:57;;;;;;;1.60;1.50;;;17.10;99.90;;;;;;4934255;29;20472;-69
2022/07/11 04:55:24;;;;;;;1.63;1.53;;;17.50;99.90;;;;;;4941382;29;20485;-69
2022/07/11 04:57:51;;;;;;;1.57;1.30;;;18.10;99.90;;;;;;4946030;29;20981;-70
2022/07/11 05:00:18;;;;;;;1.20;1.20;;;18.80;99.90;;;;;;4951751;29;20464;-67
2022/07/11 05:02:45;;;;;;;2.20;1.10;;;19.50;99.90;;;;;;4936627;29;20461;-67
2022/07/11 05:05:12;;;;;;;2.63;1.30;;;20.00;99.90;;;;;;4932421;29;20481;-67
2022/07/11 05:07:39;;;;;;;3.20;1.20;;;20.50;99.90;;;;;;4950790;29;21091;-67
2022/07/11 05:10:08;;;;;;;1.70;1.37;;;21.00;99.90;;;;;;4951436;29;20523;-68
2022/07/11 05:12:35;;;;;;;2.30;1.30;;;21.40;99.90;;;;;;4934168;29;20502;-68
2022/07/11 05:15:01;;;;;;;1.17;1.17;;;21.80;99.90;;;;;;4932994;29;20861;-69
2022/07/11 05:17:28;;;;;;;1.00;1.00;;;21.90;99.90;;;;;;4933651;29;20474;-68
2022/07/11 05:19:56;;;;;;;1.03;1.03;;;21.70;99.90;;;;;;4933142;29;20461;-69
2022/07/11 05:22:22;;;;;;;2.10;1.70;;;21.60;99.90;;;;;;4934140;29;20835;-69
2022/07/11 05:24:49;;;;;;;1.53;1.20;;;21.60;99.90;;;;;;4934099;29;20481;-68
2022/07/11 05:27:17;;;;;;;2.00;1.23;;;21.80;99.90;;;;;;4933683;29;20461;-68
2022/07/11 05:29:44;;;;;;;1.40;1.40;;;22.00;99.90;;;;;;4932730;29;20833;-68
2022/07/11 05:32:11;;;;;;;1.20;1.10;;;22.50;99.90;;;;;;4933248;29;20468;-68
2022/07/11 05:34:38;;;;;;;2.10;1.47;;;22.80;99.90;;;;;;4932602;29;20830;-68
2022/07/11 05:37:05;;;;;;;3.07;1.60;;;22.50;99.90;;;;;;4933234;29;20876;-68
2022/07/11 05:39:32;;;;;;;2.97;1.50;;;21.90;99.90;;;;;;4933098;29;20469;-69
2022/07/11 05:41:58;;;;;;;1.57;1.47;;;21.30;99.90;;;;;;4932868;29;20469;-68
2022/07/11 05:44:27;;;;;;;1.97;1.77;;;21.10;99.90;;;;;;4933538;29;20489;-68
2022/07/11 05:46:53;;;;;;;1.63;1.43;;;21.30;99.90;;;;;;4950588;29;20471;-68
2022/07/11 05:49:20;;;;;;;2.07;1.63;;;21.70;99.90;;;;;;4944523;29;21001;-68
2022/07/11 05:51:47;;;;;;;1.07;1.07;;;21.90;99.90;;;;;;4949859;29;20809;-68
2022/07/11 05:54:13;;;;;;;1.50;1.40;;;22.00;99.90;;;;;;4952514;29;20484;-68
2022/07/11 05:56:40;;;;;;;2.00;1.63;;;21.90;99.90;;;;;;4944743;29;20543;-68
2022/07/11 05:59:07;;;;;;;1.47;1.17;;;21.60;99.90;;;;;;4939132;29;20970;-68
2022/07/11 06:01:35;;;;;;;2.27;1.60;;;21.70;99.90;;;;;;4942021;29;20472;-68
2022/07/11 06:04:02;;;;;;;1.70;1.20;;;22.10;99.90;;;;;;4949998;29;20515;-68
2022/07/11 06:06:29;;;;;;;2.63;1.40;;;22.50;99.90;;;;;;4951826;28;20495;-68
2022/07/11 06:08:55;;;;;;;3.43;1.57;;;22.00;99.90;;;;;;4942559;29;20509;-68
2022/07/11 06:11:22;;;;;;;2.77;1.77;;;21.60;99.90;;;;;;4933255;29;20469;-68
2022/07/11 06:13:49;;;;;;;1.67;1.10;;;21.60;99.90;;;;;;4941135;29;20489;-69
2022/07/11 06:16:16;;;;;;;2.63;1.30;;;22.00;99.90;;;;;;4947260;29;20993;-68
2022/07/11 06:18:45;;;;;;;2.23;2.00;;;22.40;99.90;;;;;;4941190;29;20463;-68
2022/07/11 06:21:12;;;;;;;2.00;1.90;;;22.40;99.90;;;;;;4945819;29;20512;-68
2022/07/11 06:23:40;;;;;;;4.63;1.53;;;22.40;99.90;;;;;;4952037;29;20462;-68
2022/07/11 06:26:06;;;;;;;1.47;1.23;;;22.70;99.90;;;;;;4951477;29;20543;-68
2022/07/11 06:28:33;;;;;;;3.37;1.50;;;21.70;99.90;;;;;;4952118;29;20584;-69
2022/07/11 06:31:01;;;;;;;2.00;1.13;;;21.60;99.90;;;;;;4936941;29;20473;-68
2022/07/11 06:33:28;;;;;;;1.53;1.03;;;21.10;99.90;;;;;;4933566;29;20970;-69
2022/07/11 06:35:56;;;;;;;0.93;0.70;;;21.00;99.90;;;;;;4947979;29;20471;-70
2022/07/11 06:38:23;;;;;;;1.63;1.40;;;20.90;99.90;;;;;;4951778;29;20461;-70
2022/07/11 06:40:50;;;;;;;3.20;2.03;;;20.60;99.90;;;;;;4951179;29;20468;-70
2022/07/11 06:43:16;;;;;;;2.40;1.17;;;20.30;99.90;;;;;;4951116;29;20460;-70
2022/07/11 06:45:43;;;;;;;2.17;1.50;;;20.20;99.90;;;;;;4939616;29;20485;-68
2022/07/11 06:48:10;;;;;;;4.40;2.00;;;20.50;99.90;;;;;;4935221;29;20469;-69
2022/07/11 06:50:37;;;;;;;1.63;1.10;;;20.70;99.90;;;;;;4940745;29;20511;-69
2022/07/11 06:53:05;;;;;;;1.10;1.00;;;20.30;99.90;;;;;;4934975;29;20466;-69
2022/07/11 06:55:32;;;;;;;1.50;1.40;;;20.20;99.90;;;;;;4936452;29;20540;-68
2022/07/11 06:57:59;;;;;;;2.03;1.30;;;20.50;99.90;;;;;;4940677;29;20784;-68
2022/07/11 07:00:27;;;;;;;1.67;0.87;;;21.70;99.90;;;;;;4943186;29;20823;-69
2022/07/11 07:02:56;;;;;;;1.33;0.93;;;22.70;99.90;;;;;;4940458;29;20771;-68
2022/07/11 07:05:22;;;;;;;4.40;1.30;;;23.20;99.90;;;;;;4936453;29;20491;-68
2022/07/11 07:07:49;;;;;;;1.23;1.10;;;23.60;99.90;;;;;;4939090;29;20464;-69
2022/07/11 07:10:17;;;;;;;2.13;0.80;;;24.00;99.90;;;;;;4945592;29;20489;-69
2022/07/11 07:12:44;;;;;;;0.83;0.70;;;24.30;99.90;;;;;;4936138;29;20471;-69
2022/07/11 07:15:11;;;;;;;3.33;1.07;;;24.00;99.90;;;;;;4935433;29;20578;-68
2022/07/11 07:17:38;;;;;;;1.80;0.90;;;23.80;99.90;;;;;;4937083;29;20479;-68
2022/07/11 07:20:08;;;;;;;0.93;0.90;;;23.00;99.90;;;;;;4935293;29;20464;-68
2022/07/11 07:22:35;;;;;;;2.73;0.70;;;22.50;99.90;;;;;;4938664;29;20603;-68
2022/07/11 07:25:01;;;;;;;2.07;1.13;;;23.00;99.90;;;;;;4944960;29;20508;-68
2022/07/11 07:27:29;;;;;;;1.33;0.50;;;23.30;99.90;;;;;;4945287;29;20470;-68
2022/07/11 07:29:56;;;;;;;3.53;1.00;;;23.70;99.90;;;;;;4951912;29;20490;-69
2022/07/11 07:32:23;;;;;;;1.10;0.93;;;23.90;99.90;;;;;;4939343;29;20966;-68
2022/07/11 07:34:50;;;;;;;2.40;0.83;;;24.60;99.90;;;;;;4940491;29;20846;-68
2022/07/11 07:37:16;;;;;;;0.70;0.70;;;25.10;99.90;;;;;;4951423;29;20481;-68
2022/07/11 07:39:43;;;;;;;0.87;0.87;;;24.60;99.90;;;;;;4944871;29;20474;-68
2022/07/11 07:42:10;;;;;;;0.80;0.80;;;23.70;99.90;;;;;;4938285;29;20478;-69
2022/07/11 07:44:38;;;;;;;0.70;0.63;;;23.20;99.90;;;;;;4936954;29;20496;-68
2022/07/11 07:47:04;;;;;;;0.87;0.60;;;23.60;99.90;;;;;;4948756;29;20460;-68
2022/07/11 07:49:31;;;;;;;1.10;0.80;;;24.00;99.90;;;;;;4953908;29;20495;-68
2022/07/11 07:51:58;;;;;;;1.40;0.83;;;24.20;99.90;;;;;;4944454;29;20462;-68
2022/07/11 07:54:24;;;;;;;1.03;0.60;;;24.80;99.90;;;;;;4937861;29;20850;-68
2022/07/11 07:56:51;;;;;;;0.50;0.50;;;24.70;99.90;;;;;;4947936;29;20475;-68
2022/07/11 07:59:18;;;;;;;0.80;0.80;;;24.90;99.90;;;;;;4953942;29;20467;-68
2022/07/11 08:01:47;;;;;;;2.00;1.10;;;25.30;99.90;;;;;;4938298;29;20469;-68
2022/07/11 08:04:14;;;;;;;0.90;0.83;;;25.50;99.90;;;;;;4949171;28;20570;-68
2022/07/11 08:06:41;;;;;;;0.57;0.57;;;24.80;99.90;;;;;;4949937;29;20592;-68
2022/07/11 08:09:08;;;;;;;1.40;0.60;;;24.30;99.90;;;;;;4944355;29;20487;-68
2022/07/11 08:11:35;;;;;;;1.70;0.70;;;23.30;99.90;;;;;;4949778;29;20567;-68
2022/07/11 08:14:03;;;;;;;1.20;0.80;;;22.90;99.90;;;;;;4951717;29;20527;-68
2022/07/11 08:16:32;;;;;;;2.00;0.87;;;22.40;99.90;;;;;;4951778;28;20562;-68
2022/07/11 08:19:01;;;;;;;0.80;0.80;;;22.90;99.90;;;;;;4948053;29;20960;-67
2022/07/11 08:21:29;;;;;;;1.27;0.90;;;23.20;99.90;;;;;;4952380;29;20789;-68
2022/07/11 08:23:56;;;;;;;0.50;0.50;;;23.70;99.90;;;;;;4953471;29;20560;-67
2022/07/11 08:26:23;;;;;;;2.37;0.97;;;23.80;99.90;;;;;;4948831;28;20473;-68
2022/07/11 08:28:51;;;;;;;1.23;1.00;;;24.10;99.90;;;;;;4951650;28;20463;-67
2022/07/11 08:31:18;;;;;;;0.87;0.87;;;24.20;99.90;;;;;;4950137;28;20487;-68
2022/07/11 08:33:46;;;;;;;1.43;1.17;;;23.90;99.90;;;;;;4938651;29;20465;-68
2022/07/11 08:36:14;;;;;;;1.20;1.10;;;23.00;99.90;;;;;;4944671;29;20532;-68
2022/07/11 08:38:43;;;;;;;0.87;0.87;;;22.40;99.90;;;;;;4952941;29;20461;-67
2022/07/11 08:41:11;;;;;;;0.80;0.70;;;22.30;99.90;;;;;;4952062;29;20517;-67
2022/07/11 08:43:38;;;;;;;1.13;0.73;;;22.80;99.90;;;;;;4953412;29;20488;-68
2022/07/11 08:46:06;;;;;;;0.97;0.83;;;23.00;99.90;;;;;;4934884;29;20756;-67
2022/07/11 08:48:34;;;;;;;4.00;1.00;;;23.30;99.90;;;;;;4950332;29;20575;-68
2022/07/11 08:51:01;;;;;;;1.13;1.13;;;23.60;99.90;;;;;;4952269;29;20489;-68
2022/07/11 08:53:31;;;;;;;0.67;0.67;;;23.90;99.90;;;;;;4950887;28;20482;-67
2022/07/11 08:55:59;;;;;;;1.60;0.80;;;23.80;99.90;;;;;;4933937;29;20480;-68
2022/07/11 08:58:25;;;;;;;0.60;0.60;;;23.40;99.90;;;;;;4950804;29;20972;-67
2022/07/11 09:00:52;;;;;;;2.63;0.90;;;23.30;99.90;;;;;;4942481;29;20621;-68
2022/07/11 09:03:20;;;;;;;1.20;0.83;;;23.50;99.90;;;;;;4954285;29;20464;-69
2022/07/11 09:05:47;;;;;;;1.10;1.10;;;23.70;99.90;;;;;;4945072;29;20499;-69
2022/07/11 09:08:14;;;;;;;1.33;1.10;;;23.60;99.90;;;;;;4953999;29;20480;-69
2022/07/11 09:10:42;;;;;;;1.13;1.03;;;23.50;99.90;;;;;;4952712;29;20492;-68
2022/07/11 09:13:10;;;;;;;1.00;1.00;;;23.20;99.90;;;;;;4943622;29;20472;-68
2022/07/11 09:15:38;;;;;;;1.03;1.03;;;22.90;99.90;;;;;;4933270;29;21028;-68
2022/07/11 09:18:27;;;;;;;1.70;1.07;;;22.90;99.90;;;;;;4948010;29;20470;-68
2022/07/11 09:26:25;;;;;;;1.03;0.70;;;22.50;99.90;;;;;;4942603;29;20463;-68
2022/07/11 09:29:06;;;;;;;1.27;1.03;;;22.40;99.90;;;;;;4940472;29;20480;-68
2022/07/11 09:31:34;;;;;;;2.70;1.40;;;22.30;99.90;;;;;;4941300;29;21237;-68
2022/07/11 09:34:03;;;;;;;1.57;1.47;;;22.30;99.90;;;;;;4946574;29;20940;-69
2022/07/11 09:36:41;;;;;;;0.90;0.90;;;22.30;99.90;;;;;;4951143;29;20475;-68
2022/07/11 09:39:10;;;;;;;1.07;1.00;;;22.20;99.90;;;;;;4946965;29;20479;-67
2022/07/11 09:41:38;;;;;;;0.87;0.87;;;22.20;99.90;;;;;;4951992;29;20461;-68
2022/07/11 09:44:13;;;;;;;0.80;0.80;;;22.30;99.90;;;;;;4947597;29;20591;-67
2022/07/11 09:46:41;;;;;;;1.77;1.10;;;21.90;99.90;;;;;;4936605;29;20483;-67
2022/07/11 09:49:08;;;;;;;0.90;0.90;;;21.70;99.90;;;;;;4941112;29;20495;-68
2022/07/11 09:51:36;;;;;;;2.40;1.10;;;21.80;99.90;;;;;;4950024;29;20484;-70
2022/07/11 09:54:05;;;;;;;1.00;1.00;;;21.90;99.90;;;;;;4940517;29;20481;-67
2022/07/11 09:56:39;;;;;;;0.80;0.80;;;22.10;99.90;;;;;;4953312;29;20496;-68
2022/07/11 09:59:07;;;;;;;1.43;0.90;;;22.00;99.90;;;;;;4946786;29;20468;-69
2022/07/11 10:01:34;;;;;;;1.53;1.00;;;22.00;99.90;;;;;;4949822;29;20456;-67
2022/07/11 10:04:01;;;;;;;0.90;0.90;;;21.90;99.90;;;;;;4936997;29;21017;-68
2022/07/11 10:06:28;;;;;;;1.33;1.13;;;21.90;99.90;;;;;;4933320;29;20466;-68
2022/07/11 10:08:55;;;;;;;2.00;0.70;;;21.80;99.90;;;;;;4937599;29;20480;-68
2022/07/11 10:11:22;;;;;;;0.90;0.90;;;21.70;99.90;;;;;;4951562;29;20496;-67
2022/07/11 10:13:51;;;;;;;0.80;0.80;;;21.80;99.90;;;;;;4943154;29;20576;-68
2022/07/11 10:16:39;;;;;;;1.17;1.17;;;21.90;99.90;;;;;;4947188;29;20464;-68
2022/07/11 10:19:15;;;;;;;1.30;1.30;;;21.90;99.90;;;;;;4949488;29;20973;-68
2022/07/11 10:21:47;;;;;;;0.90;0.90;;;22.00;99.90;;;;;;4950915;29;20476;-68
2022/07/11 10:24:25;;;;;;;2.43;1.00;;;22.00;99.90;;;;;;4972700;23;20487;-69
2022/07/11 10:27:01;;;;;;;1.23;1.00;;;21.80;99.90;;;;;;4971329;28;20463;-69
2022/07/11 10:29:35;;;;;;;1.80;0.70;;;21.80;99.90;;;;;;4973459;28;20494;-69
2022/07/11 10:32:06;;;;;;;1.53;1.27;;;21.80;99.90;;;;;;4974306;28;20560;-71
2022/07/11 10:34:33;;;;;;;0.97;0.83;;;21.70;99.90;;;;;;4972279;28;20491;-71
2022/07/11 10:37:01;;;;;;;0.63;0.63;;;21.80;99.90;;;;;;4974903;28;20548;-72
2022/07/11 10:39:28;;;;;;;1.20;1.10;;;21.70;99.90;;;;;;4974317;28;20468;-70
2022/07/11 10:41:56;;;;;;;0.83;0.83;;;21.90;99.90;;;;;;4974847;28;20463;-71
2022/07/11 10:44:23;;;;;;;1.13;1.13;;;22.00;99.90;;;;;;4973474;28;20495;-69
2022/07/11 10:46:52;;;;;;;1.83;1.10;;;21.90;99.90;;;;;;4974360;28;20474;-71
2022/07/11 10:49:25;;;;;;;0.80;0.80;;;21.80;99.90;;;;;;4973260;28;20499;-69
2022/07/11 10:51:59;;;;;;;1.03;1.03;;;21.70;99.90;;;;;;4974303;28;20541;-69
2022/07/11 10:54:38;;;;;;;1.23;0.87;;;21.80;99.90;;;;;;4973840;28;20479;-69
2022/07/11 10:57:14;;;;;;;1.33;1.07;;;22.10;99.90;;;;;;4955619;29;20571;-69
2022/07/11 10:59:58;;;;;;;1.20;1.03;;;22.20;99.90;;;;;;4972008;28;20471;-69
2022/07/11 11:02:26;;;;;;;3.37;1.20;;;22.20;99.90;;;;;;4974081;28;20471;-69
2022/07/11 11:04:58;;;;;;;1.40;1.40;;;22.10;99.90;;;;;;4973264;28;20502;-69
2022/07/11 11:07:39;;;;;;;1.47;1.40;;;22.30;99.90;;;;;;4974115;28;20497;-69
2022/07/11 11:10:29;;;;;;;1.23;1.23;;;22.40;99.90;;;;;;4972785;28;20550;-69
2022/07/11 11:13:14;;;;;;;2.30;1.13;;;22.50;99.90;;;;;;4967727;28;20459;-71
2022/07/11 11:15:43;;;;;;;4.13;1.30;;;22.40;99.90;;;;;;4954556;29;20476;-71
2022/07/11 11:18:36;;;;;;;2.80;1.00;;;22.60;99.90;;;;;;4961128;28;20880;-69
2022/07/11 11:21:29;;;;;;;0.87;0.87;;;22.80;99.90;;;;;;4968335;28;20456;-69
2022/07/11 11:24:06;;;;;;;0.90;0.90;;;22.80;99.90;;;;;;4971435;28;20502;-71
2022/07/11 11:26:52;;;;;;;1.10;1.10;;;22.80;99.90;;;;;;4974008;28;20463;-71
2022/07/11 11:29:29;;;;;;;1.33;1.23;;;22.90;99.90;;;;;;4971954;28;20661;-71
2022/07/11 11:31:59;;;;;;;2.20;1.10;;;23.00;99.90;;;;;;4967187;28;20497;-71
2022/07/11 11:34:26;;;;;;;1.40;1.40;;;23.10;99.90;;;;;;4968665;28;20995;-71
2022/07/11 11:36:59;;;;;;;1.03;1.03;;;23.10;99.90;;;;;;4973724;28;20464;-71
2022/07/11 11:39:28;;;;;;;3.50;1.10;;;23.10;99.90;;;;;;4970388;28;20472;-71
2022/07/11 11:41:55;;;;;;;2.07;1.63;;;23.30;99.90;;;;;;4965789;28;20866;-71
2022/07/11 11:44:22;;;;;;;1.03;1.03;;;23.30;99.90;;;;;;4973568;28;20480;-71
2022/07/11 11:46:52;;;;;;;1.00;1.00;;;23.30;99.90;;;;;;4973147;28;20494;-70
2022/07/11 11:49:19;;;;;;;1.00;1.00;;;23.40;99.90;;;;;;4972411;28;20919;-71
2022/07/11 11:51:47;;;;;;;1.33;0.80;;;23.30;99.50;;;;;;4972963;28;20491;-71
2022/07/11 11:54:23;;;;;;;0.70;0.70;;;23.30;98.90;;;;;;4973643;28;20483;-71
2022/07/11 11:56:50;;;;;;;0.80;0.80;;;23.40;98.90;;;;;;4973379;28;20483;-71
2022/07/11 11:59:16;;;;;;;1.00;1.00;;;23.50;98.40;;;;;;4972830;28;20840;-71
2022/07/11 12:01:45;;;;;;;2.00;1.20;;;23.70;99.60;;;;;;4972131;28;20852;-71
2022/07/11 12:04:14;;;;;;;2.23;1.17;;;23.60;99.90;;;;;;4972124;28;20487;-71
2022/07/11 12:06:43;;;;;;;0.80;0.80;;;23.40;99.90;;;;;;4972861;28;20464;-70
2022/07/11 12:09:12;;;;;;;0.87;0.80;;;23.20;99.90;;;;;;4972647;28;20472;-71
2022/07/11 12:11:39;;;;;;;0.90;0.90;;;23.20;99.90;;;;;;4972441;28;20480;-71
2022/07/11 12:14:08;;;;;;;1.47;0.83;;;23.20;99.90;;;;;;4969773;28;20484;-71
2022/07/11 12:16:41;;;;;;;0.90;0.90;;;23.50;99.90;;;;;;4972625;28;20470;-71
2022/07/11 12:19:09;;;;;;;3.53;1.37;;;23.70;99.90;;;;;;4971380;28;20808;-71
2022/07/11 12:21:37;;;;;;;1.47;1.00;;;23.60;99.90;;;;;;4972362;28;20971;-71
2022/07/11 12:24:06;;;;;;;1.60;1.07;;;23.50;99.90;;;;;;4972747;28;20854;-69
2022/07/11 12:26:35;;;;;;;0.90;0.90;;;23.40;99.90;;;;;;4973016;28;20493;-68
2022/07/11 12:29:08;;;;;;;1.00;0.90;;;23.10;99.90;;;;;;4971521;28;20476;-71
2022/07/11 12:31:42;;;;;;;1.00;0.80;;;23.00;99.90;;;;;;4972088;28;20944;-70
2022/07/11 12:34:09;;;;;;;1.13;1.10;;;22.90;99.90;;;;;;4972628;28;20510;-71
2022/07/11 12:36:37;;;;;;;1.03;0.93;;;22.70;99.90;;;;;;4973194;28;20472;-71
2022/07/11 12:39:05;;;;;;;1.13;0.90;;;22.80;99.90;;;;;;4971794;28;20482;-68
2022/07/11 12:41:31;;;;;;;1.10;1.10;;;22.80;99.90;;;;;;4972006;28;20514;-68
2022/07/11 12:46:43;;;;;;;1.00;1.00;;;22.90;99.90;;;;;;4971857;28;20534;-69
2022/07/11 12:49:12;;;;;;;1.03;1.03;;;22.70;99.90;;;;;;4971550;28;20463;-68
2022/07/11 12:51:41;;;;;;;0.80;0.80;;;22.50;99.90;;;;;;4971483;28;20971;-69
2022/07/11 12:54:09;;;;;;;1.03;1.03;;;22.40;99.90;;;;;;4972277;28;20494;-69
2022/07/11 12:56:36;;;;;;;1.20;0.90;;;22.40;99.90;;;;;;4972409;28;20951;-69
2022/07/11 12:59:05;;;;;;;1.00;0.90;;;22.20;99.90;;;;;;4971582;28;20460;-69
2022/07/11 13:01:33;;;;;;;4.00;0.90;;;22.30;99.90;;;;;;4968640;28;20479;-68
2022/07/11 13:04:00;;;;;;;1.27;1.13;;;22.50;99.90;;;;;;4964638;28;20991;-68
2022/07/11 13:09:15;;;;;;;0.60;0.60;;;22.80;99.90;;;;;;4968922;28;20975;-70
2022/07/11 13:11:42;;;;;;;0.90;0.90;;;23.20;99.90;;;;;;4969235;28;20526;-69
2022/07/11 13:15:08;;;;;;;1.10;1.10;;;23.40;99.90;;;;;;4972055;28;20483;-70
2022/07/11 13:16:58;;;;;;;0.97;0.97;;;23.50;99.90;;;;;;4965003;28;20456;-69
2022/07/11 13:19:25;;;;;;;1.00;0.90;;;23.00;99.90;;;;;;4970558;28;20502;-69
2022/07/11 13:21:52;;;;;;;1.03;0.90;;;22.80;99.90;;;;;;4969906;28;20467;-68
2022/07/11 13:24:20;;;;;;;1.13;0.90;;;22.80;99.90;;;;;;4971685;28;20492;-69
2022/07/11 13:26:46;;;;;;;1.00;1.00;;;22.90;99.90;;;;;;4971113;28;20817;-69
2022/07/11 13:29:13;;;;;;;1.40;1.40;;;23.00;99.40;;;;;;4966637;28;20492;-68
2022/07/11 13:31:40;;;;;;;1.20;1.20;;;23.00;98.30;;;;;;4970454;28;20479;-68
2022/07/11 13:34:07;;;;;;;1.10;1.10;;;23.00;98.30;;;;;;4968194;28;20487;-69
2022/07/11 13:36:33;;;;;;;1.23;1.23;;;22.90;97.90;;;;;;4968969;28;20486;-69
2022/07/11 13:39:00;;;;;;;1.20;1.20;;;23.00;98.10;;;;;;4963006;28;20485;-69
2022/07/11 13:41:28;;;;;;;1.60;1.50;;;23.00;98.90;;;;;;4968894;28;20456;-68
2022/07/11 13:43:55;;;;;;;1.90;1.80;;;23.10;99.80;;;;;;4970509;28;20475;-68
2022/07/11 13:46:21;;;;;;;1.70;1.60;;;23.20;99.90;;;;;;4969812;28;20849;-69
2022/07/11 13:48:48;;;;;;;1.70;1.60;;;23.20;99.90;;;;;;4969976;28;20467;-68
2022/07/11 13:51:15;;;;;;;1.90;1.90;;;23.10;99.90;;;;;;4970766;28;20476;-68
2022/07/11 13:53:41;;;;;;;1.60;1.60;;;23.00;99.90;;;;;;4971407;28;20483;-69
2022/07/11 13:56:09;;;;;;;2.13;2.13;;;22.90;99.90;;;;;;4969917;28;20460;-69
2022/07/11 13:58:37;;;;;;;1.70;1.70;;;22.80;99.90;;;;;;4970150;28;20479;-69
2022/07/11 14:01:04;;;;;;;2.10;2.00;;;22.70;99.90;;;;;;4970376;28;20960;-69
2022/07/11 14:03:30;;;;;;;2.03;1.93;;;22.70;99.90;;;;;;4971823;28;21022;-69
2022/07/11 14:05:57;;;;;;;3.17;2.10;;;22.90;99.90;;;;;;4975190;28;20950;-69
2022/07/11 14:08:24;;;;;;;2.10;2.00;;;22.90;99.90;;;;;;4974362;28;20475;-69
2022/07/11 14:10:51;;;;;;;1.33;1.33;;;23.10;99.90;;;;;;4971685;28;20845;-68
2022/07/11 14:13:18;;;;;;;1.83;1.83;;;23.20;99.90;;;;;;4975148;28;20515;-68
2022/07/11 14:15:46;;;;;;;1.60;1.50;;;23.10;99.50;;;;;;4972154;28;20463;-69
2022/07/11 14:18:14;;;;;;;1.80;1.77;;;23.30;99.90;;;;;;4974641;28;20501;-70
2022/07/11 14:20:41;;;;;;;1.60;1.57;;;23.20;99.60;;;;;;4972079;28;20471;-68
2022/07/11 14:23:07;;;;;;;1.60;1.50;;;22.90;99.60;;;;;;4973470;28;20804;-69
2022/07/11 14:25:34;;;;;;;1.23;1.23;;;22.90;97.80;;;;;;4973139;28;20572;-69
2022/07/11 14:28:01;;;;;;;1.47;1.47;;;23.00;97.60;;;;;;4989424;28;20820;-69
2022/07/11 14:30:28;;;;;;;1.57;1.57;;;23.00;97.90;;;;;;4974115;28;20832;-69
2022/07/11 14:32:56;;;;;;;1.40;1.40;;;23.30;98.30;;;;;;4974427;28;20607;-69
2022/07/11 14:35:23;;;;;;;1.50;1.50;;;23.40;98.60;;;;;;4973951;28;21007;-70
2022/07/11 14:37:50;;;;;;;1.17;1.17;;;23.50;98.40;;;;;;4974720;28;20464;-69
2022/07/11 14:40:17;;;;;;;1.37;1.37;;;23.60;98.30;;;;;;4973655;28;20474;-69
2022/07/11 14:42:43;;;;;;;1.30;1.30;;;23.40;98.20;;;;;;4975087;28;20466;-69
2022/07/11 14:45:11;;;;;;;1.50;1.50;;;23.30;97.40;;;;;;4973692;28;20483;-69
2022/07/11 14:47:38;;;;;;;1.30;1.30;;;23.20;97.60;;;;;;4975267;28;20648;-70
2022/07/11 14:50:08;;;;;;;1.50;1.50;;;23.20;97.30;;;;;;4973536;28;20475;-69
2022/07/11 14:52:35;;;;;;;1.13;1.13;;;23.20;97.20;;;;;;4974265;28;20578;-69
2022/07/11 14:55:02;;;;;;;1.50;1.50;;;23.40;97.60;;;;;;4973152;28;20480;-69
2022/07/11 14:57:29;;;;;;;1.70;1.70;;;23.70;97.70;;;;;;4974363;28;20470;-69
2022/07/11 14:59:56;;;;;;;1.60;1.50;;;24.00;97.40;;;;;;4968866;28;20479;-69
2022/07/11 15:05:03;;;;;;;1.50;1.40;;;23.90;95.90;;;;;;4968946;28;20582;-69
2022/07/11 15:13:00;;;;;;;1.63;1.63;;;23.60;97.80;;;;;;4972501;28;20943;-70
2022/07/11 15:15:27;;;;;;;1.40;1.40;;;23.80;97.20;;;;;;4972692;28;20464;-69
2022/07/11 15:17:53;;;;;;;1.50;1.50;;;23.70;97.20;;;;;;4973546;28;20472;-69
2022/07/11 15:20:20;;;;;;;1.50;1.50;;;23.50;97.90;;;;;;4968820;28;20476;-69
2022/07/11 15:22:49;;;;;;;1.43;1.43;;;23.70;98.10;;;;;;4974325;28;20460;-70
2022/07/11 15:25:16;;;;;;;1.90;1.90;;;23.90;96.90;;;;;;4975431;28;20575;-70
2022/07/11 15:27:43;;;;;;;1.60;1.60;;;24.00;96.60;;;;;;4977986;28;20467;-70
2022/07/11 15:30:13;;;;;;;1.50;1.50;;;24.30;96.90;;;;;;4978201;28;20467;-70
2022/07/11 15:32:40;;;;;;;1.77;1.77;;;24.50;96.70;;;;;;4977862;28;21023;-69
2022/07/11 15:35:07;;;;;;;1.67;1.60;;;24.50;96.20;;;;;;4976216;28;20582;-70
2022/07/11 15:37:34;;;;;;;1.70;1.60;;;24.60;96.10;;;;;;4975990;28;20479;-69
2022/07/11 15:40:02;;;;;;;1.10;1.10;;;24.50;96.10;;;;;;4973052;28;20538;-69
2022/07/11 15:42:29;;;;;;;1.43;1.43;;;24.60;96.70;;;;;;4973782;28;20527;-69
2022/07/11 15:44:55;;;;;;;1.33;1.23;;;24.50;96.70;;;;;;4973355;28;21070;-69
2022/07/11 15:47:22;;;;;;;1.23;1.23;;;24.20;96.90;;;;;;4972783;28;20480;-69
2022/07/11 15:49:49;;;;;;;1.27;1.27;;;23.90;97.40;;;;;;4972447;28;20518;-69
2022/07/11 15:52:15;;;;;;;1.50;1.50;;;23.80;97.90;;;;;;4973685;28;20488;-69
2022/07/11 15:54:42;;;;;;;1.20;1.20;;;23.90;98.20;;;;;;4973240;28;20487;-69
2022/07/11 15:57:10;;;;;;;1.30;1.30;;;24.00;97.40;;;;;;4972847;28;20552;-69
2022/07/11 15:59:37;;;;;;;1.50;1.40;;;23.90;97.20;;;;;;4972658;28;20811;-70
2022/07/11 16:02:04;;;;;;;1.00;1.00;;;23.70;97.10;;;;;;4967554;28;20464;-69
2022/07/11 16:04:31;;;;;;;1.47;1.47;;;23.70;97.30;;;;;;4970690;28;20522;-69
2022/07/11 16:06:57;;;;;;;1.50;1.50;;;23.50;97.50;;;;;;4972444;28;20503;-69
2022/07/11 16:09:24;;;;;;;1.30;1.30;;;23.40;97.80;;;;;;4971859;28;20476;-69
2022/07/11 16:11:51;;;;;;;1.50;1.50;;;23.60;97.50;;;;;;4971632;28;20483;-69
2022/07/11 16:14:19;;;;;;;1.60;1.60;;;23.80;97.10;;;;;;4966068;28;20510;-69
2022/07/11 16:16:46;;;;;;;1.77;1.67;;;23.90;96.90;;;;;;4961699;28;20888;-69
2022/07/11 16:19:13;;;;;;;1.20;1.20;;;23.90;97.40;;;;;;4972924;28;20471;-68
2022/07/11 16:21:40;;;;;;;1.47;1.40;;;24.00;98.00;;;;;;4972416;28;20467;-69
2022/07/11 16:26:32;;;;;;;0.90;0.90;;;24.10;98.20;;;;;;4991953;23;20922;-69
2022/07/11 16:28:59;;;;;;;1.10;1.10;;;24.20;98.30;;;;;;4971465;28;20201;-69
2022/07/11 16:31:27;;;;;;;1.63;1.60;;;24.30;97.90;;;;;;4970930;28;20806;-69
2022/07/11 16:33:55;;;;;;;2.10;1.20;;;24.40;97.90;;;;;;4970755;28;20488;-69
2022/07/11 16:36:21;;;;;;;1.10;1.10;;;24.40;97.80;;;;;;4972063;28;20483;-69
2022/07/11 16:43:19;;;;;;;0.97;0.97;;;24.40;98.00;;;;;;4967440;28;20952;-69
2022/07/11 16:44:19;;;;;;;0.80;0.80;;;24.50;98.90;;;;;;4969634;28;20971;-69
2022/07/11 16:46:47;;;;;;;0.87;0.87;;;24.50;99.00;;;;;;4970838;28;20503;-69
2022/07/11 16:49:13;;;;;;;1.23;1.20;;;24.50;99.60;;;;;;4965583;28;20460;-68
2022/07/11 16:51:40;;;;;;;0.90;0.90;;;24.60;99.30;;;;;;4963138;28;20472;-69
2022/07/11 16:54:07;;;;;;;1.10;1.10;;;24.50;99.50;;;;;;4971821;28;20484;-68
2022/07/11 16:56:34;;;;;;;1.13;1.00;;;24.50;99.40;;;;;;4958966;28;20461;-69
2022/07/11 16:59:01;;;;;;;0.80;0.80;;;24.40;99.50;;;;;;4953770;29;20553;-69
2022/07/11 17:01:28;;;;;;;2.77;2.50;;;24.30;99.60;;;;;;4970168;28;20566;-69
2022/07/11 17:03:56;;;;;;;0.80;0.80;;;24.30;99.70;;;;;;4971525;28;20515;-69
2022/07/11 17:06:23;;;;;;;1.03;0.80;;;24.30;99.90;;;;;;4972041;28;20484;-69
2022/07/11 17:08:50;;;;;;;1.27;1.27;;;24.30;99.90;;;;;;4962341;28;20546;-69
2022/07/11 17:11:17;;;;;;;0.83;0.83;;;24.20;99.90;;;;;;4969406;28;20823;-69
2022/07/11 17:13:44;;;;;;;0.90;0.90;;;24.20;99.90;;;;;;4964072;28;20480;-69
2022/07/11 17:16:12;;;;;;;0.80;0.80;;;24.20;99.90;;;;;;4971015;28;20483;-69
2022/07/11 17:18:40;;;;;;;1.13;0.77;;;24.10;99.90;;;;;;4968099;28;20472;-69